JES3147 SARI-SABE
Flight info
| Callsign | JES3147 |
|---|---|
| Flight time | 1h 26m |
| Altitude | 36000 |
| Route | NAIDE2C NAIDE UT667 GEMSU UN785 GUA UZ129 PAGON PAGON8Q |
| Aircraft | A320/M-SDE3FGHIRWY/LB1 |
Departure
| Time | 2026-04-16 02:07 |
|---|---|
| Airport | Cataratas Del Iguazú International Airport (SARI) |
Arrival
| Time | 2026-04-16 03:34 |
|---|---|
| Airport | Aeroparque Jorge Newbery (SABE) |
| Time | Latitude | Longitude | Altitude | Speed | Heading |
|---|---|---|---|---|---|
| 2026-04-16 01:40 | -25.73238 | -54.47641 | 927 ft | 0 kts | 26° |
| 2026-04-16 02:01 | -25.73244 | -54.47644 | 931 ft | 2 kts | 26° |
| 2026-04-16 02:01 | -25.73262 | -54.47653 | 928 ft | 3 kts | 17° |
| 2026-04-16 02:01 | -25.73280 | -54.47656 | 929 ft | 3 kts | 341° |
| 2026-04-16 02:02 | -25.73290 | -54.47649 | 928 ft | 2 kts | 295° |
| 2026-04-16 02:02 | -25.73296 | -54.47635 | 929 ft | 1 kts | 295° |
| 2026-04-16 02:02 | -25.73297 | -54.47633 | 929 ft | 0 kts | 295° |
| 2026-04-16 02:04 | -25.73274 | -54.47688 | 927 ft | 19 kts | 294° |
| 2026-04-16 02:05 | -25.73222 | -54.47837 | 929 ft | 21 kts | 269° |
| 2026-04-16 02:05 | -25.73232 | -54.48002 | 927 ft | 22 kts | 266° |
| 2026-04-16 02:05 | -25.73245 | -54.48179 | 930 ft | 24 kts | 264° |
| 2026-04-16 02:05 | -25.73262 | -54.48364 | 929 ft | 25 kts | 265° |
| 2026-04-16 02:06 | -25.73221 | -54.48553 | 929 ft | 27 kts | 302° |
| 2026-04-16 02:06 | -25.73160 | -54.48706 | 927 ft | 20 kts | 293° |
| 2026-04-16 02:06 | -25.73092 | -54.48795 | 927 ft | 13 kts | 265° |
| 2026-04-16 02:06 | -25.73160 | -54.48707 | 927 ft | 42 kts | 110° |
| 2026-04-16 02:07 | -25.73377 | -54.48178 | 930 ft | 105 kts | 115° |
| 2026-04-16 02:07 | -25.73753 | -54.47277 | 929 ft | 151 kts | 115° |
| 2026-04-16 02:07 | -25.74244 | -54.46111 | 1145 ft | 172 kts | 114° |
| 2026-04-16 02:07 | -25.74748 | -54.44923 | 1826 ft | 169 kts | 112° |
| 2026-04-16 02:08 | -25.75255 | -54.43722 | 2274 ft | 180 kts | 111° |
| 2026-04-16 02:08 | -25.75802 | -54.42400 | 2580 ft | 196 kts | 110° |
| 2026-04-16 02:08 | -25.76383 | -54.40970 | 2945 ft | 210 kts | 109° |
| 2026-04-16 02:08 | -25.77017 | -54.39427 | 3213 ft | 229 kts | 110° |
| 2026-04-16 02:09 | -25.77784 | -54.37788 | 3465 ft | 255 kts | 125° |
| 2026-04-16 02:09 | -25.79304 | -54.36585 | 3745 ft | 285 kts | 161° |
| 2026-04-16 02:09 | -25.81293 | -54.36327 | 4491 ft | 292 kts | 180° |
| 2026-04-16 02:09 | -25.83339 | -54.36302 | 5332 ft | 296 kts | 179° |
| 2026-04-16 02:10 | -25.85408 | -54.36251 | 6186 ft | 299 kts | 179° |
| 2026-04-16 02:10 | -25.87503 | -54.36187 | 6984 ft | 303 kts | 179° |
| 2026-04-16 02:10 | -25.89618 | -54.36119 | 7773 ft | 306 kts | 180° |
| 2026-04-16 02:10 | -25.91757 | -54.36053 | 8543 ft | 309 kts | 180° |
| 2026-04-16 02:11 | -25.93892 | -54.35989 | 9311 ft | 313 kts | 180° |
| 2026-04-16 02:11 | -25.96106 | -54.35927 | 10053 ft | 317 kts | 181° |
| 2026-04-16 02:11 | -25.98372 | -54.35869 | 10377 ft | 336 kts | 181° |
| 2026-04-16 02:11 | -26.00781 | -54.35811 | 10625 ft | 355 kts | 181° |
| 2026-04-16 02:12 | -26.03250 | -54.35746 | 11155 ft | 362 kts | 181° |
| 2026-04-16 02:12 | -26.05782 | -54.35674 | 11801 ft | 366 kts | 181° |
| 2026-04-16 02:12 | -26.08374 | -54.35596 | 12453 ft | 369 kts | 181° |
| 2026-04-16 02:12 | -26.10949 | -54.35521 | 13092 ft | 372 kts | 181° |
| 2026-04-16 02:13 | -26.13512 | -54.35449 | 13709 ft | 375 kts | 181° |
| 2026-04-16 02:13 | -26.16133 | -54.35376 | 14255 ft | 378 kts | 181° |
| 2026-04-16 02:13 | -26.18771 | -54.35303 | 14796 ft | 380 kts | 182° |
| 2026-04-16 02:13 | -26.21426 | -54.35229 | 15344 ft | 383 kts | 182° |
| 2026-04-16 02:14 | -26.24074 | -54.35398 | 15870 ft | 380 kts | 196° |
| 2026-04-16 02:14 | -26.26534 | -54.36387 | 16387 ft | 373 kts | 214° |
| 2026-04-16 02:14 | -26.28631 | -54.38052 | 16940 ft | 370 kts | 223° |
| 2026-04-16 02:14 | -26.30646 | -54.39849 | 17483 ft | 372 kts | 223° |
| 2026-04-16 02:15 | -26.32661 | -54.41661 | 18032 ft | 374 kts | 224° |
| 2026-04-16 02:15 | -26.34686 | -54.43492 | 18521 ft | 376 kts | 224° |
| 2026-04-16 02:15 | -26.36719 | -54.45329 | 18981 ft | 378 kts | 223° |
| 2026-04-16 02:15 | -26.38771 | -54.47176 | 19457 ft | 379 kts | 223° |
| 2026-04-16 02:16 | -26.40832 | -54.49026 | 19931 ft | 381 kts | 223° |
| 2026-04-16 02:16 | -26.42901 | -54.50885 | 20395 ft | 383 kts | 223° |
| 2026-04-16 02:16 | -26.44982 | -54.52758 | 20857 ft | 385 kts | 223° |
| 2026-04-16 02:16 | -26.47069 | -54.54638 | 21289 ft | 387 kts | 223° |
| 2026-04-16 02:17 | -26.49164 | -54.56525 | 21731 ft | 388 kts | 223° |
| 2026-04-16 02:17 | -26.51278 | -54.58423 | 22155 ft | 391 kts | 223° |
| 2026-04-16 02:17 | -26.53398 | -54.60328 | 22584 ft | 393 kts | 223° |
| 2026-04-16 02:17 | -26.55528 | -54.62245 | 23011 ft | 394 kts | 223° |
| 2026-04-16 02:18 | -26.57670 | -54.64177 | 23445 ft | 396 kts | 223° |
| 2026-04-16 02:18 | -26.59819 | -54.66113 | 23780 ft | 398 kts | 223° |
| 2026-04-16 02:18 | -26.61984 | -54.68063 | 24105 ft | 401 kts | 223° |
| 2026-04-16 02:18 | -26.64168 | -54.70036 | 24264 ft | 409 kts | 223° |
| 2026-04-16 02:19 | -26.66403 | -54.72062 | 24379 ft | 417 kts | 223° |
| 2026-04-16 02:19 | -26.68643 | -54.74092 | 24489 ft | 424 kts | 223° |
| 2026-04-16 02:19 | -26.70958 | -54.76186 | 24606 ft | 431 kts | 223° |
| 2026-04-16 02:19 | -26.73311 | -54.78314 | 24711 ft | 438 kts | 223° |
| 2026-04-16 02:20 | -26.75697 | -54.80472 | 24845 ft | 444 kts | 223° |
| 2026-04-16 02:20 | -26.78114 | -54.82660 | 24945 ft | 450 kts | 223° |
| 2026-04-16 02:20 | -26.80563 | -54.84874 | 25084 ft | 454 kts | 223° |
| 2026-04-16 02:20 | -26.83025 | -54.87097 | 25340 ft | 456 kts | 223° |
| 2026-04-16 02:21 | -26.85491 | -54.89326 | 25678 ft | 455 kts | 223° |
| 2026-04-16 02:21 | -26.87950 | -54.91557 | 26046 ft | 454 kts | 223° |
| 2026-04-16 02:21 | -26.90402 | -54.93790 | 26424 ft | 453 kts | 224° |
| 2026-04-16 02:21 | -26.92847 | -54.96016 | 26825 ft | 453 kts | 224° |
| 2026-04-16 02:22 | -26.95285 | -54.98236 | 27214 ft | 452 kts | 224° |
| 2026-04-16 02:22 | -26.96904 | -54.99707 | 27483 ft | 451 kts | 224° |
| 2026-04-16 02:22 | -26.99339 | -55.01920 | 27901 ft | 451 kts | 224° |
| 2026-04-16 02:22 | -27.01770 | -55.04136 | 28329 ft | 450 kts | 224° |
| 2026-04-16 02:23 | -27.04193 | -55.06345 | 28769 ft | 449 kts | 224° |
| 2026-04-16 02:23 | -27.06613 | -55.08552 | 29215 ft | 448 kts | 224° |
| 2026-04-16 02:23 | -27.09029 | -55.10754 | 29674 ft | 447 kts | 224° |
| 2026-04-16 02:23 | -27.11438 | -55.12948 | 30110 ft | 446 kts | 224° |
| 2026-04-16 02:24 | -27.13843 | -55.15141 | 30476 ft | 445 kts | 224° |
| 2026-04-16 02:24 | -27.16247 | -55.17335 | 30845 ft | 445 kts | 224° |
| 2026-04-16 02:24 | -27.18641 | -55.19526 | 31204 ft | 444 kts | 224° |
| 2026-04-16 02:24 | -27.21035 | -55.21721 | 31565 ft | 444 kts | 225° |
| 2026-04-16 02:25 | -27.23432 | -55.23918 | 31941 ft | 445 kts | 224° |
| 2026-04-16 02:25 | -27.25833 | -55.26114 | 32328 ft | 444 kts | 225° |
| 2026-04-16 02:25 | -27.28227 | -55.28304 | 32743 ft | 444 kts | 225° |
| 2026-04-16 02:25 | -27.30618 | -55.30494 | 33143 ft | 443 kts | 225° |
| 2026-04-16 02:26 | -27.33004 | -55.32681 | 33560 ft | 442 kts | 225° |
| 2026-04-16 02:26 | -27.35388 | -55.34868 | 33949 ft | 442 kts | 225° |
| 2026-04-16 02:26 | -27.37765 | -55.37055 | 34267 ft | 442 kts | 225° |
| 2026-04-16 02:26 | -27.40147 | -55.39249 | 34569 ft | 442 kts | 225° |
| 2026-04-16 02:27 | -27.42527 | -55.41442 | 34865 ft | 442 kts | 225° |
| 2026-04-16 02:27 | -27.44913 | -55.43637 | 35147 ft | 442 kts | 225° |
| 2026-04-16 02:27 | -27.47266 | -55.45801 | 35436 ft | 443 kts | 225° |
| 2026-04-16 02:27 | -27.49649 | -55.47998 | 35698 ft | 443 kts | 225° |
| 2026-04-16 02:28 | -27.52035 | -55.50196 | 35873 ft | 444 kts | 225° |
| 2026-04-16 02:28 | -27.54436 | -55.52409 | 35923 ft | 449 kts | 225° |
| 2026-04-16 02:28 | -27.59337 | -55.56940 | 35924 ft | 461 kts | 225° |
| 2026-04-16 02:29 | -27.64601 | -55.61241 | 35908 ft | 473 kts | 219° |
| 2026-04-16 02:29 | -27.70098 | -55.65357 | 35908 ft | 475 kts | 219° |
| 2026-04-16 02:30 | -27.75606 | -55.69483 | 35907 ft | 475 kts | 219° |
| 2026-04-16 02:30 | -27.81105 | -55.73619 | 35901 ft | 475 kts | 220° |
| 2026-04-16 02:31 | -27.86603 | -55.77762 | 35902 ft | 475 kts | 220° |
| 2026-04-16 02:31 | -27.92101 | -55.81905 | 35923 ft | 474 kts | 219° |
| 2026-04-16 02:32 | -27.97594 | -55.86046 | 35914 ft | 474 kts | 219° |
| 2026-04-16 02:32 | -28.03076 | -55.90187 | 35903 ft | 474 kts | 219° |
| 2026-04-16 02:33 | -28.08553 | -55.94338 | 35899 ft | 474 kts | 219° |
| 2026-04-16 02:33 | -28.13994 | -55.98456 | 35902 ft | 474 kts | 219° |
| 2026-04-16 02:34 | -28.19468 | -56.02614 | 35890 ft | 474 kts | 220° |
| 2026-04-16 02:34 | -28.24949 | -56.06776 | 35906 ft | 473 kts | 219° |
| 2026-04-16 02:35 | -28.30418 | -56.10935 | 35890 ft | 473 kts | 219° |
| 2026-04-16 02:35 | -28.35893 | -56.15097 | 35885 ft | 473 kts | 219° |
| 2026-04-16 02:36 | -28.41361 | -56.19267 | 35879 ft | 473 kts | 220° |
| 2026-04-16 02:36 | -28.46826 | -56.23445 | 35882 ft | 473 kts | 219° |
| 2026-04-16 02:37 | -28.52292 | -56.27625 | 35876 ft | 473 kts | 220° |
| 2026-04-16 02:37 | -28.57753 | -56.31805 | 35883 ft | 473 kts | 219° |
| 2026-04-16 02:38 | -28.63213 | -56.35990 | 35881 ft | 473 kts | 219° |
| 2026-04-16 02:38 | -28.68635 | -56.40150 | 35882 ft | 473 kts | 219° |
| 2026-04-16 02:39 | -28.74090 | -56.44342 | 35875 ft | 473 kts | 219° |
| 2026-04-16 02:39 | -28.79544 | -56.48535 | 35872 ft | 473 kts | 219° |
| 2026-04-16 02:40 | -28.84996 | -56.52732 | 35880 ft | 473 kts | 219° |
| 2026-04-16 02:40 | -28.90447 | -56.56935 | 35868 ft | 473 kts | 219° |
| 2026-04-16 02:41 | -28.95897 | -56.61149 | 35874 ft | 473 kts | 219° |
| 2026-04-16 02:41 | -29.01342 | -56.65367 | 35874 ft | 473 kts | 219° |
| 2026-04-16 02:42 | -29.06786 | -56.69583 | 35861 ft | 473 kts | 219° |
| 2026-04-16 02:42 | -29.12234 | -56.73797 | 35858 ft | 473 kts | 219° |
| 2026-04-16 02:43 | -29.17682 | -56.78017 | 35858 ft | 473 kts | 219° |
| 2026-04-16 02:43 | -29.23126 | -56.82255 | 35857 ft | 473 kts | 219° |
| 2026-04-16 02:44 | -29.28528 | -56.86470 | 35857 ft | 473 kts | 219° |
| 2026-04-16 02:44 | -29.33970 | -56.90711 | 35858 ft | 473 kts | 219° |
| 2026-04-16 02:45 | -29.39403 | -56.94951 | 35847 ft | 472 kts | 219° |
| 2026-04-16 02:45 | -29.44834 | -56.99195 | 35845 ft | 472 kts | 219° |
| 2026-04-16 02:46 | -29.50275 | -57.03446 | 35844 ft | 472 kts | 219° |
| 2026-04-16 02:46 | -29.55697 | -57.07696 | 35846 ft | 472 kts | 219° |
| 2026-04-16 02:47 | -29.61124 | -57.11957 | 35854 ft | 472 kts | 219° |
| 2026-04-16 02:47 | -29.66543 | -57.16217 | 35852 ft | 472 kts | 219° |
| 2026-04-16 02:48 | -29.71973 | -57.20485 | 35836 ft | 472 kts | 219° |
| 2026-04-16 02:48 | -29.77395 | -57.24751 | 35849 ft | 472 kts | 219° |
| 2026-04-16 02:49 | -29.82813 | -57.29026 | 35833 ft | 472 kts | 219° |
| 2026-04-16 02:49 | -29.88225 | -57.33295 | 35829 ft | 472 kts | 218° |
| 2026-04-16 02:50 | -29.93646 | -57.37581 | 35823 ft | 472 kts | 219° |
| 2026-04-16 02:50 | -29.99057 | -57.41865 | 35823 ft | 472 kts | 218° |
| 2026-04-16 02:51 | -30.04468 | -57.46151 | 35820 ft | 472 kts | 218° |
| 2026-04-16 02:51 | -30.09845 | -57.50415 | 35825 ft | 472 kts | 218° |
| 2026-04-16 02:52 | -30.15247 | -57.54730 | 35817 ft | 472 kts | 218° |
| 2026-04-16 02:52 | -30.20978 | -57.58457 | 35815 ft | 479 kts | 204° |
| 2026-04-16 02:53 | -30.27251 | -57.61099 | 35806 ft | 480 kts | 204° |
| 2026-04-16 02:53 | -30.33539 | -57.63718 | 35805 ft | 481 kts | 203° |
| 2026-04-16 02:54 | -30.39836 | -57.66341 | 35821 ft | 481 kts | 203° |
| 2026-04-16 02:54 | -30.46116 | -57.68974 | 35814 ft | 480 kts | 203° |
| 2026-04-16 02:55 | -30.52397 | -57.71614 | 35808 ft | 480 kts | 203° |
| 2026-04-16 02:55 | -30.58679 | -57.74254 | 35812 ft | 480 kts | 203° |
| 2026-04-16 02:56 | -30.64961 | -57.76903 | 35818 ft | 480 kts | 203° |
| 2026-04-16 02:56 | -30.71216 | -57.79493 | 35817 ft | 480 kts | 201° |
| 2026-04-16 02:57 | -30.77611 | -57.81784 | 35811 ft | 481 kts | 199° |
| 2026-04-16 02:57 | -30.84061 | -57.83907 | 35805 ft | 481 kts | 199° |
| 2026-04-16 02:58 | -30.90494 | -57.86077 | 35815 ft | 481 kts | 200° |
| 2026-04-16 02:58 | -30.96903 | -57.88319 | 35813 ft | 481 kts | 200° |
| 2026-04-16 02:59 | -31.03308 | -57.90593 | 35821 ft | 481 kts | 200° |
| 2026-04-16 02:59 | -31.09722 | -57.92855 | 35848 ft | 481 kts | 200° |
| 2026-04-16 03:00 | -31.16134 | -57.95114 | 35878 ft | 481 kts | 199° |
| 2026-04-16 03:00 | -31.22544 | -57.97363 | 35889 ft | 481 kts | 199° |
| 2026-04-16 03:01 | -31.28909 | -57.99593 | 35872 ft | 480 kts | 199° |
| 2026-04-16 03:01 | -31.35297 | -58.01837 | 35876 ft | 479 kts | 200° |
| 2026-04-16 03:02 | -31.41681 | -58.04090 | 35871 ft | 479 kts | 200° |
| 2026-04-16 03:02 | -31.48060 | -58.06353 | 35873 ft | 478 kts | 200° |
| 2026-04-16 03:03 | -31.54419 | -58.08614 | 35845 ft | 477 kts | 200° |
| 2026-04-16 03:03 | -31.60768 | -58.10854 | 35831 ft | 476 kts | 200° |
| 2026-04-16 03:04 | -31.67111 | -58.13101 | 35825 ft | 476 kts | 200° |
| 2026-04-16 03:04 | -31.73446 | -58.15360 | 35826 ft | 476 kts | 200° |
| 2026-04-16 03:05 | -31.79780 | -58.17626 | 35818 ft | 476 kts | 200° |
| 2026-04-16 03:05 | -31.86071 | -58.19871 | 35815 ft | 476 kts | 200° |
| 2026-04-16 03:06 | -31.92408 | -58.22133 | 35826 ft | 475 kts | 200° |
| 2026-04-16 03:07 | -32.01891 | -58.25526 | 35841 ft | 474 kts | 200° |
| 2026-04-16 03:07 | -32.08202 | -58.27784 | 35836 ft | 474 kts | 200° |
| 2026-04-16 03:08 | -32.14509 | -58.30048 | 35830 ft | 473 kts | 200° |
| 2026-04-16 03:08 | -32.20810 | -58.32310 | 35826 ft | 473 kts | 200° |
| 2026-04-16 03:09 | -32.27110 | -58.34577 | 35830 ft | 473 kts | 200° |
| 2026-04-16 03:09 | -32.32343 | -58.36464 | 35828 ft | 473 kts | 200° |
| 2026-04-16 03:10 | -32.38650 | -58.38738 | 35827 ft | 473 kts | 200° |
| 2026-04-16 03:10 | -32.45974 | -58.41385 | 35837 ft | 473 kts | 200° |
| 2026-04-16 03:11 | -32.51254 | -58.43295 | 35841 ft | 473 kts | 200° |
| 2026-04-16 03:11 | -32.57538 | -58.45573 | 35842 ft | 472 kts | 200° |
| 2026-04-16 03:12 | -32.63768 | -58.47843 | 35850 ft | 471 kts | 200° |
| 2026-04-16 03:12 | -32.70170 | -58.49774 | 35847 ft | 475 kts | 191° |
| 2026-04-16 03:13 | -32.76683 | -58.50829 | 35858 ft | 474 kts | 190° |
| 2026-04-16 03:13 | -32.83218 | -58.51866 | 35856 ft | 474 kts | 190° |
| 2026-04-16 03:14 | -32.89747 | -58.52907 | 35857 ft | 473 kts | 190° |
| 2026-04-16 03:14 | -32.93014 | -58.53430 | 35606 ft | 475 kts | 190° |
| 2026-04-16 03:14 | -32.96281 | -58.53955 | 35302 ft | 471 kts | 190° |
| 2026-04-16 03:14 | -32.99527 | -58.54478 | 35066 ft | 472 kts | 190° |
| 2026-04-16 03:15 | -33.02782 | -58.55004 | 34828 ft | 472 kts | 190° |
| 2026-04-16 03:15 | -33.06039 | -58.55532 | 34601 ft | 472 kts | 190° |
| 2026-04-16 03:15 | -33.09297 | -58.56059 | 34341 ft | 473 kts | 190° |
| 2026-04-16 03:15 | -33.12567 | -58.56587 | 33640 ft | 475 kts | 190° |
| 2026-04-16 03:16 | -33.15850 | -58.57115 | 32837 ft | 476 kts | 189° |
| 2026-04-16 03:16 | -33.19132 | -58.57643 | 32061 ft | 476 kts | 189° |
| 2026-04-16 03:16 | -33.22425 | -58.58175 | 31305 ft | 480 kts | 188° |
| 2026-04-16 03:16 | -33.25744 | -58.58713 | 30569 ft | 483 kts | 188° |
| 2026-04-16 03:17 | -33.29090 | -58.59257 | 29837 ft | 486 kts | 187° |
| 2026-04-16 03:17 | -33.32450 | -58.59805 | 28994 ft | 488 kts | 187° |
| 2026-04-16 03:17 | -33.35779 | -58.60348 | 28208 ft | 490 kts | 187° |
| 2026-04-16 03:17 | -33.39159 | -58.60896 | 27418 ft | 491 kts | 187° |
| 2026-04-16 03:18 | -33.42545 | -58.61443 | 26648 ft | 492 kts | 187° |
| 2026-04-16 03:18 | -33.45941 | -58.61993 | 25904 ft | 493 kts | 187° |
| 2026-04-16 03:18 | -33.49344 | -58.62548 | 25179 ft | 494 kts | 188° |
| 2026-04-16 03:18 | -33.52749 | -58.63106 | 24472 ft | 495 kts | 188° |
| 2026-04-16 03:19 | -33.56149 | -58.63663 | 23781 ft | 490 kts | 188° |
| 2026-04-16 03:19 | -33.59513 | -58.64121 | 23031 ft | 483 kts | 182° |
| 2026-04-16 03:19 | -33.62844 | -58.64008 | 22239 ft | 474 kts | 178° |
| 2026-04-16 03:19 | -33.66106 | -58.63829 | 21469 ft | 466 kts | 177° |
| 2026-04-16 03:20 | -33.69302 | -58.63649 | 20985 ft | 453 kts | 178° |
| 2026-04-16 03:20 | -33.72409 | -58.63468 | 20552 ft | 441 kts | 178° |
| 2026-04-16 03:20 | -33.75431 | -58.63288 | 20123 ft | 429 kts | 178° |
| 2026-04-16 03:20 | -33.78375 | -58.63112 | 19703 ft | 419 kts | 178° |
| 2026-04-16 03:21 | -33.81262 | -58.62941 | 19291 ft | 411 kts | 178° |
| 2026-04-16 03:21 | -33.84097 | -58.62776 | 18878 ft | 403 kts | 177° |
| 2026-04-16 03:21 | -33.86797 | -58.62618 | 18474 ft | 383 kts | 177° |
| 2026-04-16 03:21 | -33.89426 | -58.62465 | 18057 ft | 365 kts | 177° |
| 2026-04-16 03:22 | -33.91905 | -58.62322 | 17586 ft | 349 kts | 177° |
| 2026-04-16 03:22 | -33.94254 | -58.62186 | 17135 ft | 336 kts | 177° |
| 2026-04-16 03:22 | -33.96579 | -58.62053 | 16680 ft | 325 kts | 177° |
| 2026-04-16 03:22 | -33.98783 | -58.61931 | 16245 ft | 317 kts | 177° |
| 2026-04-16 03:23 | -34.00959 | -58.61809 | 15770 ft | 310 kts | 177° |
| 2026-04-16 03:23 | -34.03107 | -58.61685 | 15224 ft | 307 kts | 177° |
| 2026-04-16 03:23 | -34.05237 | -58.61561 | 14680 ft | 305 kts | 177° |
| 2026-04-16 03:23 | -34.07352 | -58.61438 | 14145 ft | 303 kts | 176° |
| 2026-04-16 03:24 | -34.09452 | -58.61315 | 13611 ft | 302 kts | 176° |
| 2026-04-16 03:24 | -34.11545 | -58.61195 | 13013 ft | 300 kts | 176° |
| 2026-04-16 03:24 | -34.13623 | -58.61075 | 12430 ft | 298 kts | 175° |
| 2026-04-16 03:24 | -34.15687 | -58.60954 | 11865 ft | 296 kts | 175° |
| 2026-04-16 03:25 | -34.17737 | -58.60834 | 11302 ft | 294 kts | 175° |
| 2026-04-16 03:25 | -34.19773 | -58.60714 | 10744 ft | 292 kts | 174° |
| 2026-04-16 03:25 | -34.21800 | -58.60596 | 10201 ft | 290 kts | 174° |
| 2026-04-16 03:25 | -34.23812 | -58.60481 | 9660 ft | 289 kts | 174° |
| 2026-04-16 03:26 | -34.25813 | -58.60365 | 9078 ft | 287 kts | 173° |
| 2026-04-16 03:26 | -34.27790 | -58.60250 | 8595 ft | 282 kts | 173° |
| 2026-04-16 03:26 | -34.29732 | -58.60138 | 8121 ft | 277 kts | 173° |
| 2026-04-16 03:26 | -34.31640 | -58.60029 | 7652 ft | 272 kts | 172° |
| 2026-04-16 03:27 | -34.33517 | -58.59924 | 7184 ft | 268 kts | 172° |
| 2026-04-16 03:27 | -34.35361 | -58.59825 | 6736 ft | 264 kts | 172° |
| 2026-04-16 03:27 | -34.37182 | -58.59729 | 6283 ft | 260 kts | 172° |
| 2026-04-16 03:27 | -34.38915 | -58.59644 | 5814 ft | 245 kts | 172° |
| 2026-04-16 03:28 | -34.40563 | -58.59566 | 5348 ft | 230 kts | 172° |
| 2026-04-16 03:28 | -34.42123 | -58.59488 | 4839 ft | 220 kts | 172° |
| 2026-04-16 03:28 | -34.43627 | -58.59410 | 4285 ft | 214 kts | 173° |
| 2026-04-16 03:28 | -34.45069 | -58.59218 | 3751 ft | 204 kts | 158° |
| 2026-04-16 03:29 | -34.46283 | -58.58460 | 3278 ft | 190 kts | 138° |
| 2026-04-16 03:29 | -34.47122 | -58.57309 | 2910 ft | 177 kts | 122° |
| 2026-04-16 03:29 | -34.47796 | -58.56105 | 2661 ft | 168 kts | 122° |
| 2026-04-16 03:29 | -34.48449 | -58.54941 | 2422 ft | 166 kts | 122° |
| 2026-04-16 03:30 | -34.49094 | -58.53789 | 2197 ft | 165 kts | 122° |
| 2026-04-16 03:30 | -34.49734 | -58.52647 | 1980 ft | 163 kts | 121° |
| 2026-04-16 03:30 | -34.50368 | -58.51516 | 1792 ft | 162 kts | 121° |
| 2026-04-16 03:30 | -34.50979 | -58.50425 | 1558 ft | 147 kts | 120° |
| 2026-04-16 03:31 | -34.51534 | -58.49435 | 1391 ft | 138 kts | 121° |
| 2026-04-16 03:31 | -34.52066 | -58.48482 | 1214 ft | 134 kts | 123° |
| 2026-04-16 03:31 | -34.52590 | -58.47545 | 1050 ft | 134 kts | 120° |
| 2026-04-16 03:31 | -34.53109 | -58.46617 | 863 ft | 133 kts | 121° |
| 2026-04-16 03:32 | -34.53630 | -58.45684 | 695 ft | 132 kts | 124° |
| 2026-04-16 03:32 | -34.54156 | -58.44744 | 499 ft | 136 kts | 125° |
| 2026-04-16 03:34 | -34.56092 | -58.41029 | 27 ft | 13 kts | 314° |
| 2026-04-16 03:34 | -34.56012 | -58.41168 | 27 ft | 26 kts | 303° |
| 2026-04-16 03:34 | -34.55935 | -58.41285 | 26 ft | 0 kts | 307° |
| 2026-04-16 03:35 | -34.55929 | -58.41294 | 26 ft | 8 kts | 310° |
| 2026-04-16 03:35 | -34.55866 | -58.41291 | 27 ft | 9 kts | 34° |
| 2026-04-16 03:35 | -34.55823 | -58.41309 | 27 ft | 6 kts | 311° |
| 2026-04-16 03:35 | -34.55803 | -58.41346 | 29 ft | 6 kts | 302° |
| 2026-04-16 03:36 | -34.55782 | -58.41344 | 27 ft | 2 kts | 39° |
| 2026-04-16 03:36 | -34.55767 | -58.41332 | 26 ft | 5 kts | 34° |
| 2026-04-16 03:36 | -34.55757 | -58.41323 | 25 ft | 0 kts | 36° |
| 2026-04-16 03:37 | -34.55757 | -58.41324 | 25 ft | 0 kts | 36° |
| 2026-04-16 03:38 | -34.55758 | -58.41324 | 26 ft | 0 kts | 36° |